YSNW/NOA METAR and TAF weather

Enter ICAO airport designator
Station Type Date Time Source
YSNW METAR 2022/05/25 04:00 UTC NOAA

YSNW 250400Z 14009KT 9999 4000SW -SHRA BKN020 BKN034 16/14 Q1022


Station Type Date Time Source
YSNW Decoded METAR 2022/05/25 04:00 UTC NOAA

Nowra Ran Air Station, Australia (YSNW) 34-57S 150-32E 110M
May 25, 2022 - 12:00 AM EDT / 2022.05.25 0400 UTC
Wind: from the SE (140 degrees) at 10 MPH (9 KT):0
Visibility: greater than 7 mile(s):0
Sky conditions: mostly cloudy
Weather: light rain showers
Temperature: 60 F (16 C)
Dew Point: 57 F (14 C)
Relative Humidity: 87%
Pressure (altimeter): 30.18 in. Hg (1022 hPa)
ob: YSNW 250400Z 14009KT 9999 4000SW -SHRA BKN020 BKN034 16/14 Q1022
cycle: 4

Station Type Date Time Source
YSNW TAF UTC NOAA

Error!

Example: see airport list